sensor_id;sensor_type;location;lat;lon;timestamp;P1;durP1;ratioP1;P2;durP2;ratioP2
17614;SDS011;8926;49.720;6.576;2023-07-13T00:02:14;0.60;;;0.60;;
17614;SDS011;8926;49.720;6.576;2023-07-13T00:04:43;0.50;;;0.50;;
17614;SDS011;8926;49.720;6.576;2023-07-13T00:07:09;0.57;;;0.57;;
17614;SDS011;8926;49.720;6.576;2023-07-13T00:09:34;0.70;;;0.70;;
17614;SDS011;8926;49.720;6.576;2023-07-13T00:12:00;0.70;;;0.70;;
17614;SDS011;8926;49.720;6.576;2023-07-13T00:14:26;0.60;;;0.60;;
17614;SDS011;8926;49.720;6.576;2023-07-13T00:16:53;0.70;;;0.70;;
17614;SDS011;8926;49.720;6.576;2023-07-13T00:19:19;0.60;;;0.50;;
17614;SDS011;8926;49.720;6.576;2023-07-13T00:21:44;1.10;;;0.60;;
17614;SDS011;8926;49.720;6.576;2023-07-13T00:24:11;0.77;;;0.70;;
17614;SDS011;8926;49.720;6.576;2023-07-13T00:26:38;0.57;;;0.57;;
17614;SDS011;8926;49.720;6.576;2023-07-13T00:29:04;1.57;;;0.70;;
17614;SDS011;8926;49.720;6.576;2023-07-13T00:31:33;0.60;;;0.60;;
17614;SDS011;8926;49.720;6.576;2023-07-13T00:33:58;1.27;;;0.63;;
17614;SDS011;8926;49.720;6.576;2023-07-13T00:36:25;0.40;;;0.40;;
17614;SDS011;8926;49.720;6.576;2023-07-13T00:38:51;0.80;;;0.80;;
17614;SDS011;8926;49.720;6.576;2023-07-13T00:41:16;0.60;;;0.60;;
17614;SDS011;8926;49.720;6.576;2023-07-13T00:43:41;0.97;;;0.60;;
17614;SDS011;8926;49.720;6.576;2023-07-13T00:46:26;0.90;;;0.63;;
17614;SDS011;8926;49.720;6.576;2023-07-13T00:48:54;0.40;;;0.40;;
17614;SDS011;8926;49.720;6.576;2023-07-13T00:51:25;0.47;;;0.47;;
17614;SDS011;8926;49.720;6.576;2023-07-13T00:53:56;0.60;;;0.60;;
17614;SDS011;8926;49.720;6.576;2023-07-13T00:56:23;0.80;;;0.63;;
17614;SDS011;8926;49.720;6.576;2023-07-13T00:58:49;1.20;;;0.97;;
17614;SDS011;8926;49.720;6.576;2023-07-13T01:01:15;1.67;;;1.40;;
17614;SDS011;8926;49.720;6.576;2023-07-13T01:03:40;1.50;;;0.93;;
17614;SDS011;8926;49.720;6.576;2023-07-13T01:06:06;1.50;;;1.40;;
17614;SDS011;8926;49.720;6.576;2023-07-13T01:08:33;0.90;;;0.90;;
17614;SDS011;8926;49.720;6.576;2023-07-13T01:10:58;1.07;;;0.70;;
17614;SDS011;8926;49.720;6.576;2023-07-13T01:13:24;0.60;;;0.60;;
17614;SDS011;8926;49.720;6.576;2023-07-13T01:15:50;0.50;;;0.50;;
17614;SDS011;8926;49.720;6.576;2023-07-13T01:18:18;0.70;;;0.70;;
17614;SDS011;8926;49.720;6.576;2023-07-13T01:20:50;0.50;;;0.50;;
17614;SDS011;8926;49.720;6.576;2023-07-13T01:23:19;0.83;;;0.83;;
17614;SDS011;8926;49.720;6.576;2023-07-13T01:25:45;0.70;;;0.70;;
17614;SDS011;8926;49.720;6.576;2023-07-13T01:28:10;0.70;;;0.70;;
17614;SDS011;8926;49.720;6.576;2023-07-13T01:30:36;0.77;;;0.60;;
17614;SDS011;8926;49.720;6.576;2023-07-13T01:33:04;0.60;;;0.60;;
17614;SDS011;8926;49.720;6.576;2023-07-13T01:35:32;0.73;;;0.73;;
17614;SDS011;8926;49.720;6.576;2023-07-13T01:37:57;0.53;;;0.53;;
17614;SDS011;8926;49.720;6.576;2023-07-13T01:40:22;0.63;;;0.63;;
17614;SDS011;8926;49.720;6.576;2023-07-13T01:42:48;0.77;;;0.53;;
17614;SDS011;8926;49.720;6.576;2023-07-13T01:45:13;0.50;;;0.50;;
17614;SDS011;8926;49.720;6.576;2023-07-13T01:47:39;0.83;;;0.50;;
17614;SDS011;8926;49.720;6.576;2023-07-13T01:50:05;0.70;;;0.70;;
17614;SDS011;8926;49.720;6.576;2023-07-13T01:52:30;0.80;;;0.63;;
17614;SDS011;8926;49.720;6.576;2023-07-13T01:54:55;0.60;;;0.60;;
17614;SDS011;8926;49.720;6.576;2023-07-13T01:57:21;0.50;;;0.50;;
17614;SDS011;8926;49.720;6.576;2023-07-13T01:59:46;0.80;;;0.80;;
17614;SDS011;8926;49.720;6.576;2023-07-13T02:02:11;0.80;;;0.80;;
17614;SDS011;8926;49.720;6.576;2023-07-13T02:04:37;1.57;;;1.10;;
17614;SDS011;8926;49.720;6.576;2023-07-13T02:07:02;1.37;;;1.27;;
17614;SDS011;8926;49.720;6.576;2023-07-13T02:09:27;0.80;;;0.80;;
17614;SDS011;8926;49.720;6.576;2023-07-13T02:11:53;0.60;;;0.60;;
17614;SDS011;8926;49.720;6.576;2023-07-13T02:14:18;0.80;;;0.73;;
17614;SDS011;8926;49.720;6.576;2023-07-13T02:16:43;0.80;;;0.80;;
17614;SDS011;8926;49.720;6.576;2023-07-13T02:19:09;0.60;;;0.60;;
17614;SDS011;8926;49.720;6.576;2023-07-13T02:21:34;0.67;;;0.67;;
17614;SDS011;8926;49.720;6.576;2023-07-13T02:24:00;0.80;;;0.80;;
17614;SDS011;8926;49.720;6.576;2023-07-13T02:26:26;1.37;;;1.10;;
17614;SDS011;8926;49.720;6.576;2023-07-13T02:28:51;2.20;;;1.00;;
17614;SDS011;8926;49.720;6.576;2023-07-13T02:31:17;1.17;;;1.07;;
17614;SDS011;8926;49.720;6.576;2023-07-13T02:33:42;0.77;;;0.77;;
17614;SDS011;8926;49.720;6.576;2023-07-13T02:36:08;0.80;;;0.80;;
17614;SDS011;8926;49.720;6.576;2023-07-13T02:38:34;0.63;;;0.63;;
17614;SDS011;8926;49.720;6.576;2023-07-13T02:41:04;1.13;;;0.70;;
17614;SDS011;8926;49.720;6.576;2023-07-13T02:43:31;0.70;;;0.60;;
17614;SDS011;8926;49.720;6.576;2023-07-13T02:45:58;0.70;;;0.70;;
17614;SDS011;8926;49.720;6.576;2023-07-13T02:48:29;0.50;;;0.50;;
17614;SDS011;8926;49.720;6.576;2023-07-13T02:50:54;0.60;;;0.60;;
17614;SDS011;8926;49.720;6.576;2023-07-13T02:53:20;0.93;;;0.63;;
17614;SDS011;8926;49.720;6.576;2023-07-13T02:55:45;0.70;;;0.70;;
17614;SDS011;8926;49.720;6.576;2023-07-13T02:58:12;1.43;;;0.77;;
17614;SDS011;8926;49.720;6.576;2023-07-13T03:00:41;1.13;;;0.80;;
17614;SDS011;8926;49.720;6.576;2023-07-13T03:03:07;1.10;;;1.10;;
17614;SDS011;8926;49.720;6.576;2023-07-13T03:05:33;1.50;;;1.03;;
17614;SDS011;8926;49.720;6.576;2023-07-13T03:07:58;0.73;;;0.73;;
17614;SDS011;8926;49.720;6.576;2023-07-13T03:10:23;0.73;;;0.73;;
17614;SDS011;8926;49.720;6.576;2023-07-13T03:12:49;0.90;;;0.67;;
17614;SDS011;8926;49.720;6.576;2023-07-13T03:15:14;0.70;;;0.60;;
17614;SDS011;8926;49.720;6.576;2023-07-13T03:17:39;0.73;;;0.73;;
17614;SDS011;8926;49.720;6.576;2023-07-13T03:20:05;0.60;;;0.60;;
17614;SDS011;8926;49.720;6.576;2023-07-13T03:22:32;0.67;;;0.60;;
17614;SDS011;8926;49.720;6.576;2023-07-13T03:24:57;0.53;;;0.53;;
17614;SDS011;8926;49.720;6.576;2023-07-13T03:27:22;1.20;;;0.70;;
17614;SDS011;8926;49.720;6.576;2023-07-13T03:29:48;0.40;;;0.40;;
17614;SDS011;8926;49.720;6.576;2023-07-13T03:32:13;0.67;;;0.60;;
17614;SDS011;8926;49.720;6.576;2023-07-13T03:34:38;0.50;;;0.40;;
17614;SDS011;8926;49.720;6.576;2023-07-13T03:37:04;0.90;;;0.63;;
17614;SDS011;8926;49.720;6.576;2023-07-13T03:39:29;1.80;;;0.90;;
17614;SDS011;8926;49.720;6.576;2023-07-13T03:41:55;2.17;;;1.10;;
17614;SDS011;8926;49.720;6.576;2023-07-13T03:44:20;1.10;;;1.00;;
17614;SDS011;8926;49.720;6.576;2023-07-13T03:46:45;0.80;;;0.80;;
17614;SDS011;8926;49.720;6.576;2023-07-13T03:49:11;0.87;;;0.80;;
17614;SDS011;8926;49.720;6.576;2023-07-13T03:51:36;0.90;;;0.90;;
17614;SDS011;8926;49.720;6.576;2023-07-13T03:54:02;0.70;;;0.70;;
17614;SDS011;8926;49.720;6.576;2023-07-13T03:56:28;1.03;;;0.77;;
17614;SDS011;8926;49.720;6.576;2023-07-13T03:58:55;1.03;;;1.00;;
17614;SDS011;8926;49.720;6.576;2023-07-13T04:01:21;2.27;;;1.37;;
17614;SDS011;8926;49.720;6.576;2023-07-13T04:03:48;1.20;;;1.00;;
17614;SDS011;8926;49.720;6.576;2023-07-13T04:06:25;1.70;;;1.33;;
17614;SDS011;8926;49.720;6.576;2023-07-13T04:08:54;1.50;;;1.40;;
17614;SDS011;8926;49.720;6.576;2023-07-13T04:11:22;1.30;;;1.20;;
17614;SDS011;8926;49.720;6.576;2023-07-13T04:13:50;1.40;;;1.20;;
17614;SDS011;8926;49.720;6.576;2023-07-13T04:16:16;1.87;;;1.40;;
17614;SDS011;8926;49.720;6.576;2023-07-13T04:18:43;1.43;;;0.90;;
17614;SDS011;8926;49.720;6.576;2023-07-13T04:21:10;1.20;;;1.10;;
17614;SDS011;8926;49.720;6.576;2023-07-13T04:23:36;1.10;;;1.00;;
17614;SDS011;8926;49.720;6.576;2023-07-13T04:26:02;1.87;;;0.90;;
17614;SDS011;8926;49.720;6.576;2023-07-13T04:28:27;1.37;;;0.90;;
17614;SDS011;8926;49.720;6.576;2023-07-13T04:30:53;1.00;;;1.00;;
17614;SDS011;8926;49.720;6.576;2023-07-13T04:33:18;1.77;;;1.60;;
17614;SDS011;8926;49.720;6.576;2023-07-13T04:35:48;2.07;;;1.40;;
17614;SDS011;8926;49.720;6.576;2023-07-13T04:38:14;1.23;;;1.10;;
17614;SDS011;8926;49.720;6.576;2023-07-13T04:40:42;2.83;;;1.47;;
17614;SDS011;8926;49.720;6.576;2023-07-13T04:43:08;2.17;;;1.30;;
17614;SDS011;8926;49.720;6.576;2023-07-13T04:45:34;2.33;;;1.57;;
17614;SDS011;8926;49.720;6.576;2023-07-13T04:48:00;1.77;;;1.67;;
17614;SDS011;8926;49.720;6.576;2023-07-13T04:50:25;1.70;;;1.57;;
17614;SDS011;8926;49.720;6.576;2023-07-13T04:52:50;1.93;;;1.27;;
17614;SDS011;8926;49.720;6.576;2023-07-13T04:55:16;1.40;;;1.00;;
17614;SDS011;8926;49.720;6.576;2023-07-13T04:57:42;1.73;;;1.50;;
17614;SDS011;8926;49.720;6.576;2023-07-13T05:00:08;2.07;;;1.10;;
17614;SDS011;8926;49.720;6.576;2023-07-13T05:02:34;1.77;;;1.40;;
17614;SDS011;8926;49.720;6.576;2023-07-13T05:05:00;3.27;;;1.53;;
17614;SDS011;8926;49.720;6.576;2023-07-13T05:07:25;1.20;;;0.97;;
17614;SDS011;8926;49.720;6.576;2023-07-13T05:09:51;0.73;;;0.63;;
17614;SDS011;8926;49.720;6.576;2023-07-13T05:12:16;1.83;;;1.10;;
17614;SDS011;8926;49.720;6.576;2023-07-13T05:14:42;1.37;;;0.87;;
17614;SDS011;8926;49.720;6.576;2023-07-13T05:17:07;1.93;;;1.40;;
17614;SDS011;8926;49.720;6.576;2023-07-13T05:19:33;3.20;;;1.70;;
17614;SDS011;8926;49.720;6.576;2023-07-13T05:21:58;2.53;;;1.20;;
17614;SDS011;8926;49.720;6.576;2023-07-13T05:24:23;6.80;;;1.50;;
17614;SDS011;8926;49.720;6.576;2023-07-13T05:26:49;2.20;;;1.80;;
17614;SDS011;8926;49.720;6.576;2023-07-13T05:29:14;1.73;;;1.33;;
17614;SDS011;8926;49.720;6.576;2023-07-13T05:31:39;3.57;;;1.47;;
17614;SDS011;8926;49.720;6.576;2023-07-13T05:34:05;0.97;;;0.80;;
17614;SDS011;8926;49.720;6.576;2023-07-13T05:36:31;0.90;;;0.80;;
17614;SDS011;8926;49.720;6.576;2023-07-13T05:38:56;2.87;;;1.43;;
17614;SDS011;8926;49.720;6.576;2023-07-13T05:41:22;1.50;;;1.10;;
17614;SDS011;8926;49.720;6.576;2023-07-13T05:43:47;0.90;;;0.63;;
17614;SDS011;8926;49.720;6.576;2023-07-13T05:46:12;0.97;;;0.83;;
17614;SDS011;8926;49.720;6.576;2023-07-13T05:48:38;0.73;;;0.60;;
17614;SDS011;8926;49.720;6.576;2023-07-13T05:51:03;1.33;;;0.80;;
17614;SDS011;8926;49.720;6.576;2023-07-13T05:53:28;1.00;;;0.90;;
17614;SDS011;8926;49.720;6.576;2023-07-13T05:55:54;1.20;;;0.67;;
17614;SDS011;8926;49.720;6.576;2023-07-13T05:58:20;0.90;;;0.60;;
17614;SDS011;8926;49.720;6.576;2023-07-13T06:00:46;0.80;;;0.57;;
17614;SDS011;8926;49.720;6.576;2023-07-13T06:03:13;0.43;;;0.40;;
17614;SDS011;8926;49.720;6.576;2023-07-13T06:05:39;0.47;;;0.47;;
17614;SDS011;8926;49.720;6.576;2023-07-13T06:08:05;1.97;;;0.80;;
17614;SDS011;8926;49.720;6.576;2023-07-13T06:10:35;0.70;;;0.40;;
17614;SDS011;8926;49.720;6.576;2023-07-13T06:13:01;0.50;;;0.50;;
17614;SDS011;8926;49.720;6.576;2023-07-13T06:15:28;0.80;;;0.47;;
17614;SDS011;8926;49.720;6.576;2023-07-13T06:17:53;0.93;;;0.60;;
17614;SDS011;8926;49.720;6.576;2023-07-13T06:20:18;0.43;;;0.43;;
17614;SDS011;8926;49.720;6.576;2023-07-13T06:22:44;0.60;;;0.40;;
17614;SDS011;8926;49.720;6.576;2023-07-13T06:25:09;0.90;;;0.60;;
17614;SDS011;8926;49.720;6.576;2023-07-13T06:27:34;2.87;;;0.70;;
17614;SDS011;8926;49.720;6.576;2023-07-13T06:30:00;1.57;;;0.60;;
17614;SDS011;8926;49.720;6.576;2023-07-13T06:32:25;1.67;;;0.57;;
17614;SDS011;8926;49.720;6.576;2023-07-13T06:34:51;0.60;;;0.50;;
17614;SDS011;8926;49.720;6.576;2023-07-13T06:37:17;0.77;;;0.60;;
17614;SDS011;8926;49.720;6.576;2023-07-13T06:39:42;1.07;;;0.70;;
17614;SDS011;8926;49.720;6.576;2023-07-13T06:42:08;1.50;;;1.00;;
17614;SDS011;8926;49.720;6.576;2023-07-13T06:44:33;1.33;;;0.93;;
17614;SDS011;8926;49.720;6.576;2023-07-13T06:46:58;1.47;;;1.00;;
17614;SDS011;8926;49.720;6.576;2023-07-13T06:49:23;1.07;;;0.63;;
17614;SDS011;8926;49.720;6.576;2023-07-13T06:51:49;2.33;;;1.00;;
17614;SDS011;8926;49.720;6.576;2023-07-13T06:54:14;0.90;;;0.60;;
17614;SDS011;8926;49.720;6.576;2023-07-13T06:56:40;0.77;;;0.50;;
17614;SDS011;8926;49.720;6.576;2023-07-13T06:59:05;1.03;;;0.53;;
17614;SDS011;8926;49.720;6.576;2023-07-13T07:01:30;1.40;;;0.77;;
17614;SDS011;8926;49.720;6.576;2023-07-13T07:03:55;1.73;;;0.73;;
17614;SDS011;8926;49.720;6.576;2023-07-13T07:06:22;0.67;;;0.60;;
17614;SDS011;8926;49.720;6.576;2023-07-13T07:08:51;0.80;;;0.70;;
17614;SDS011;8926;49.720;6.576;2023-07-13T07:11:18;1.00;;;0.90;;
17614;SDS011;8926;49.720;6.576;2023-07-13T07:13:47;1.00;;;0.80;;
17614;SDS011;8926;49.720;6.576;2023-07-13T07:16:12;0.77;;;0.60;;
17614;SDS011;8926;49.720;6.576;2023-07-13T07:18:37;2.57;;;1.10;;
17614;SDS011;8926;49.720;6.576;2023-07-13T07:21:03;1.37;;;0.73;;
17614;SDS011;8926;49.720;6.576;2023-07-13T07:23:28;3.60;;;1.10;;
17614;SDS011;8926;49.720;6.576;2023-07-13T07:25:53;2.67;;;1.13;;
17614;SDS011;8926;49.720;6.576;2023-07-13T07:28:19;1.70;;;1.10;;
17614;SDS011;8926;49.720;6.576;2023-07-13T07:30:45;1.90;;;1.00;;
17614;SDS011;8926;49.720;6.576;2023-07-13T07:33:11;2.03;;;1.10;;
17614;SDS011;8926;49.720;6.576;2023-07-13T07:35:36;2.70;;;1.20;;
17614;SDS011;8926;49.720;6.576;2023-07-13T07:38:02;2.10;;;1.20;;
17614;SDS011;8926;49.720;6.576;2023-07-13T07:40:27;1.57;;;0.97;;
17614;SDS011;8926;49.720;6.576;2023-07-13T07:42:53;2.97;;;1.00;;
17614;SDS011;8926;49.720;6.576;2023-07-13T07:45:18;1.93;;;0.90;;
17614;SDS011;8926;49.720;6.576;2023-07-13T07:47:44;1.10;;;0.67;;
17614;SDS011;8926;49.720;6.576;2023-07-13T07:50:09;0.70;;;0.70;;
17614;SDS011;8926;49.720;6.576;2023-07-13T07:52:35;1.70;;;0.90;;
17614;SDS011;8926;49.720;6.576;2023-07-13T07:55:01;1.50;;;0.80;;
17614;SDS011;8926;49.720;6.576;2023-07-13T07:57:26;1.20;;;0.80;;
17614;SDS011;8926;49.720;6.576;2023-07-13T07:59:51;2.47;;;1.00;;
17614;SDS011;8926;49.720;6.576;2023-07-13T08:02:17;0.77;;;0.60;;
17614;SDS011;8926;49.720;6.576;2023-07-13T08:04:42;1.07;;;0.60;;
17614;SDS011;8926;49.720;6.576;2023-07-13T08:07:08;1.20;;;0.80;;
17614;SDS011;8926;49.720;6.576;2023-07-13T08:09:34;1.90;;;0.60;;
17614;SDS011;8926;49.720;6.576;2023-07-13T08:11:59;1.10;;;0.80;;
17614;SDS011;8926;49.720;6.576;2023-07-13T08:14:25;1.30;;;0.50;;
17614;SDS011;8926;49.720;6.576;2023-07-13T08:16:50;0.93;;;0.73;;
17614;SDS011;8926;49.720;6.576;2023-07-13T08:19:15;2.30;;;0.90;;
17614;SDS011;8926;49.720;6.576;2023-07-13T08:21:41;1.67;;;1.10;;
17614;SDS011;8926;49.720;6.576;2023-07-13T08:24:08;0.80;;;0.50;;
17614;SDS011;8926;49.720;6.576;2023-07-13T08:26:33;1.30;;;0.70;;
17614;SDS011;8926;49.720;6.576;2023-07-13T08:28:59;1.30;;;0.70;;
17614;SDS011;8926;49.720;6.576;2023-07-13T08:31:24;1.47;;;0.77;;
17614;SDS011;8926;49.720;6.576;2023-07-13T08:33:50;1.77;;;0.83;;
17614;SDS011;8926;49.720;6.576;2023-07-13T08:36:15;1.30;;;0.80;;
17614;SDS011;8926;49.720;6.576;2023-07-13T08:38:40;1.57;;;0.90;;
17614;SDS011;8926;49.720;6.576;2023-07-13T08:41:10;1.00;;;0.80;;
17614;SDS011;8926;49.720;6.576;2023-07-13T08:43:37;1.20;;;0.77;;
17614;SDS011;8926;49.720;6.576;2023-07-13T08:49:05;2.03;;;1.17;;
17614;SDS011;8926;49.720;6.576;2023-07-13T08:51:49;1.63;;;0.80;;
17614;SDS011;8926;49.720;6.576;2023-07-13T08:54:28;1.20;;;0.70;;
17614;SDS011;8926;49.720;6.576;2023-07-13T08:56:59;1.47;;;0.80;;
17614;SDS011;8926;49.720;6.576;2023-07-13T08:59:28;2.40;;;1.00;;
17614;SDS011;8926;49.720;6.576;2023-07-13T09:04:43;1.47;;;0.90;;
17614;SDS011;8926;49.720;6.576;2023-07-13T09:07:49;1.13;;;0.90;;
17614;SDS011;8926;49.720;6.576;2023-07-13T09:10:31;2.30;;;0.80;;
17614;SDS011;8926;49.720;6.576;2023-07-13T09:15:51;1.03;;;0.77;;
17614;SDS011;8926;49.720;6.576;2023-07-13T09:20:53;0.90;;;0.70;;
17614;SDS011;8926;49.720;6.576;2023-07-13T09:23:21;1.13;;;0.80;;
17614;SDS011;8926;49.720;6.576;2023-07-13T09:25:50;0.43;;;0.43;;
17614;SDS011;8926;49.720;6.576;2023-07-13T09:28:28;0.30;;;0.30;;
17614;SDS011;8926;49.720;6.576;2023-07-13T09:31:04;1.93;;;0.70;;
17614;SDS011;8926;49.720;6.576;2023-07-13T09:33:37;0.47;;;0.40;;
17614;SDS011;8926;49.720;6.576;2023-07-13T09:36:15;1.00;;;0.60;;
17614;SDS011;8926;49.720;6.576;2023-07-13T09:38:58;0.60;;;0.60;;
17614;SDS011;8926;49.720;6.576;2023-07-13T09:44:16;1.07;;;0.70;;
17614;SDS011;8926;49.720;6.576;2023-07-13T09:46:53;0.60;;;0.50;;
17614;SDS011;8926;49.720;6.576;2023-07-13T09:49:23;1.50;;;0.80;;
17614;SDS011;8926;49.720;6.576;2023-07-13T09:52:02;1.47;;;0.80;;
17614;SDS011;8926;49.720;6.576;2023-07-13T09:54:32;0.53;;;0.40;;
17614;SDS011;8926;49.720;6.576;2023-07-13T09:56:59;0.87;;;0.60;;
17614;SDS011;8926;49.720;6.576;2023-07-13T09:59:29;1.20;;;0.73;;
17614;SDS011;8926;49.720;6.576;2023-07-13T10:01:57;1.07;;;0.70;;
17614;SDS011;8926;49.720;6.576;2023-07-13T10:04:27;0.60;;;0.60;;
17614;SDS011;8926;49.720;6.576;2023-07-13T10:07:06;1.17;;;0.67;;
17614;SDS011;8926;49.720;6.576;2023-07-13T10:09:33;0.60;;;0.53;;
17614;SDS011;8926;49.720;6.576;2023-07-13T10:11:58;0.30;;;0.30;;
17614;SDS011;8926;49.720;6.576;2023-07-13T10:14:23;0.10;;;0.10;;
17614;SDS011;8926;49.720;6.576;2023-07-13T10:16:51;0.70;;;0.50;;
17614;SDS011;8926;49.720;6.576;2023-07-13T10:19:24;1.60;;;0.77;;
17614;SDS011;8926;49.720;6.576;2023-07-13T10:21:53;0.50;;;0.50;;
17614;SDS011;8926;49.720;6.576;2023-07-13T10:24:23;0.90;;;0.40;;
17614;SDS011;8926;49.720;6.576;2023-07-13T10:29:42;0.43;;;0.40;;
17614;SDS011;8926;49.720;6.576;2023-07-13T10:32:11;1.07;;;0.37;;
17614;SDS011;8926;49.720;6.576;2023-07-13T10:34:38;0.70;;;0.70;;
17614;SDS011;8926;49.720;6.576;2023-07-13T10:37:05;0.47;;;0.43;;
17614;SDS011;8926;49.720;6.576;2023-07-13T10:39:41;0.60;;;0.60;;
17614;SDS011;8926;49.720;6.576;2023-07-13T10:42:08;0.73;;;0.30;;
17614;SDS011;8926;49.720;6.576;2023-07-13T10:44:40;0.57;;;0.57;;
17614;SDS011;8926;49.720;6.576;2023-07-13T10:47:11;0.77;;;0.70;;
17614;SDS011;8926;49.720;6.576;2023-07-13T10:49:40;1.00;;;0.80;;
17614;SDS011;8926;49.720;6.576;2023-07-13T10:52:34;0.50;;;0.50;;
17614;SDS011;8926;49.720;6.576;2023-07-13T10:59:01;0.50;;;0.50;;
17614;SDS011;8926;49.720;6.576;2023-07-13T11:06:50;1.20;;;0.50;;
17614;SDS011;8926;49.720;6.576;2023-07-13T11:12:28;0.80;;;0.60;;
17614;SDS011;8926;49.720;6.576;2023-07-13T11:25:33;0.97;;;0.77;;
17614;SDS011;8926;49.720;6.576;2023-07-13T11:28:10;1.20;;;0.50;;
17614;SDS011;8926;49.720;6.576;2023-07-13T11:33:28;0.67;;;0.27;;
17614;SDS011;8926;49.720;6.576;2023-07-13T11:36:14;0.60;;;0.60;;
17614;SDS011;8926;49.720;6.576;2023-07-13T11:38:42;1.20;;;0.60;;
17614;SDS011;8926;49.720;6.576;2023-07-13T11:41:26;0.50;;;0.50;;
17614;SDS011;8926;49.720;6.576;2023-07-13T11:44:11;0.50;;;0.50;;
17614;SDS011;8926;49.720;6.576;2023-07-13T11:46:45;1.07;;;0.80;;
17614;SDS011;8926;49.720;6.576;2023-07-13T11:49:15;0.77;;;0.70;;
17614;SDS011;8926;49.720;6.576;2023-07-13T11:51:41;0.60;;;0.60;;
17614;SDS011;8926;49.720;6.576;2023-07-13T11:54:19;0.60;;;0.47;;
17614;SDS011;8926;49.720;6.576;2023-07-13T11:56:49;0.77;;;0.70;;
17614;SDS011;8926;49.720;6.576;2023-07-13T11:59:15;1.03;;;0.60;;
17614;SDS011;8926;49.720;6.576;2023-07-13T12:01:44;1.47;;;0.80;;
17614;SDS011;8926;49.720;6.576;2023-07-13T12:04:20;0.70;;;0.53;;
17614;SDS011;8926;49.720;6.576;2023-07-13T12:06:52;0.83;;;0.50;;
17614;SDS011;8926;49.720;6.576;2023-07-13T12:09:20;0.43;;;0.30;;
17614;SDS011;8926;49.720;6.576;2023-07-13T12:11:50;1.10;;;0.63;;
17614;SDS011;8926;49.720;6.576;2023-07-13T12:14:16;0.97;;;0.60;;
17614;SDS011;8926;49.720;6.576;2023-07-13T12:16:44;0.57;;;0.57;;
17614;SDS011;8926;49.720;6.576;2023-07-13T12:19:21;1.63;;;0.77;;
17614;SDS011;8926;49.720;6.576;2023-07-13T12:21:50;0.67;;;0.40;;
17614;SDS011;8926;49.720;6.576;2023-07-13T12:24:18;1.27;;;0.60;;
17614;SDS011;8926;49.720;6.576;2023-07-13T12:26:50;0.50;;;0.50;;
17614;SDS011;8926;49.720;6.576;2023-07-13T12:29:39;1.57;;;0.60;;
17614;SDS011;8926;49.720;6.576;2023-07-13T12:32:07;0.60;;;0.60;;
17614;SDS011;8926;49.720;6.576;2023-07-13T12:34:49;0.67;;;0.60;;
17614;SDS011;8926;49.720;6.576;2023-07-13T12:37:17;0.97;;;0.60;;
17614;SDS011;8926;49.720;6.576;2023-07-13T12:39:46;0.60;;;0.57;;
17614;SDS011;8926;49.720;6.576;2023-07-13T12:42:23;0.67;;;0.67;;
17614;SDS011;8926;49.720;6.576;2023-07-13T12:44:53;2.40;;;0.97;;
17614;SDS011;8926;49.720;6.576;2023-07-13T12:47:22;2.60;;;0.87;;
17614;SDS011;8926;49.720;6.576;2023-07-13T12:49:49;0.30;;;0.30;;
17614;SDS011;8926;49.720;6.576;2023-07-13T12:52:22;0.40;;;0.40;;
17614;SDS011;8926;49.720;6.576;2023-07-13T12:54:57;0.50;;;0.50;;
17614;SDS011;8926;49.720;6.576;2023-07-13T12:57:24;0.53;;;0.40;;
17614;SDS011;8926;49.720;6.576;2023-07-13T12:59:53;0.37;;;0.37;;
17614;SDS011;8926;49.720;6.576;2023-07-13T13:02:29;0.53;;;0.40;;
17614;SDS011;8926;49.720;6.576;2023-07-13T13:04:57;1.00;;;0.83;;
17614;SDS011;8926;49.720;6.576;2023-07-13T13:07:24;0.70;;;0.50;;
17614;SDS011;8926;49.720;6.576;2023-07-13T13:09:50;0.93;;;0.53;;
17614;SDS011;8926;49.720;6.576;2023-07-13T13:12:15;0.83;;;0.60;;
17614;SDS011;8926;49.720;6.576;2023-07-13T13:14:41;0.43;;;0.43;;
17614;SDS011;8926;49.720;6.576;2023-07-13T13:17:15;0.60;;;0.60;;
17614;SDS011;8926;49.720;6.576;2023-07-13T13:19:46;0.30;;;0.30;;
17614;SDS011;8926;49.720;6.576;2023-07-13T13:22:12;0.57;;;0.40;;
17614;SDS011;8926;49.720;6.576;2023-07-13T13:24:38;0.97;;;0.40;;
17614;SDS011;8926;49.720;6.576;2023-07-13T13:27:04;1.23;;;0.50;;
17614;SDS011;8926;49.720;6.576;2023-07-13T13:29:33;1.00;;;0.30;;
17614;SDS011;8926;49.720;6.576;2023-07-13T13:32:00;0.27;;;0.27;;
17614;SDS011;8926;49.720;6.576;2023-07-13T13:34:25;0.40;;;0.40;;
17614;SDS011;8926;49.720;6.576;2023-07-13T13:36:51;0.77;;;0.40;;
17614;SDS011;8926;49.720;6.576;2023-07-13T13:39:22;0.90;;;0.80;;
17614;SDS011;8926;49.720;6.576;2023-07-13T13:41:50;1.07;;;0.60;;
17614;SDS011;8926;49.720;6.576;2023-07-13T13:44:17;1.10;;;0.83;;
17614;SDS011;8926;49.720;6.576;2023-07-13T13:46:46;0.87;;;0.63;;
17614;SDS011;8926;49.720;6.576;2023-07-13T13:49:24;0.80;;;0.80;;
17614;SDS011;8926;49.720;6.576;2023-07-13T13:51:52;0.87;;;0.70;;
17614;SDS011;8926;49.720;6.576;2023-07-13T13:54:19;2.03;;;0.70;;
17614;SDS011;8926;49.720;6.576;2023-07-13T13:56:46;0.87;;;0.57;;
17614;SDS011;8926;49.720;6.576;2023-07-13T13:59:13;0.87;;;0.70;;
17614;SDS011;8926;49.720;6.576;2023-07-13T14:01:39;1.17;;;0.70;;
17614;SDS011;8926;49.720;6.576;2023-07-13T14:04:08;1.90;;;0.90;;
17614;SDS011;8926;49.720;6.576;2023-07-13T14:06:38;2.20;;;0.80;;
17614;SDS011;8926;49.720;6.576;2023-07-13T14:09:04;1.80;;;0.80;;
17614;SDS011;8926;49.720;6.576;2023-07-13T14:11:33;0.50;;;0.40;;
17614;SDS011;8926;49.720;6.576;2023-07-13T14:13:59;1.30;;;0.63;;
17614;SDS011;8926;49.720;6.576;2023-07-13T14:16:26;1.50;;;0.70;;
17614;SDS011;8926;49.720;6.576;2023-07-13T14:18:54;0.60;;;0.60;;
17614;SDS011;8926;49.720;6.576;2023-07-13T14:21:23;3.43;;;0.87;;
17614;SDS011;8926;49.720;6.576;2023-07-13T14:23:48;0.70;;;0.50;;
17614;SDS011;8926;49.720;6.576;2023-07-13T14:26:16;0.80;;;0.80;;
17614;SDS011;8926;49.720;6.576;2023-07-13T14:28:44;0.67;;;0.67;;
17614;SDS011;8926;49.720;6.576;2023-07-13T14:31:12;0.77;;;0.63;;
17614;SDS011;8926;49.720;6.576;2023-07-13T14:33:39;0.60;;;0.60;;
17614;SDS011;8926;49.720;6.576;2023-07-13T14:38:52;1.10;;;0.80;;
17614;SDS011;8926;49.720;6.576;2023-07-13T14:41:18;1.63;;;0.97;;
17614;SDS011;8926;49.720;6.576;2023-07-13T14:43:44;2.53;;;1.00;;
17614;SDS011;8926;49.720;6.576;2023-07-13T14:46:28;1.27;;;1.00;;
17614;SDS011;8926;49.720;6.576;2023-07-13T14:49:02;1.33;;;0.93;;
17614;SDS011;8926;49.720;6.576;2023-07-13T14:51:33;1.80;;;0.93;;
17614;SDS011;8926;49.720;6.576;2023-07-13T14:54:03;2.07;;;0.90;;
17614;SDS011;8926;49.720;6.576;2023-07-13T14:56:30;1.33;;;1.00;;
17614;SDS011;8926;49.720;6.576;2023-07-13T14:58:56;1.10;;;0.70;;
17614;SDS011;8926;49.720;6.576;2023-07-13T15:01:21;1.10;;;0.60;;
17614;SDS011;8926;49.720;6.576;2023-07-13T15:03:48;1.50;;;0.90;;
17614;SDS011;8926;49.720;6.576;2023-07-13T15:06:16;1.67;;;0.70;;
17614;SDS011;8926;49.720;6.576;2023-07-13T15:08:43;1.20;;;1.10;;
17614;SDS011;8926;49.720;6.576;2023-07-13T15:11:09;3.63;;;0.93;;
17614;SDS011;8926;49.720;6.576;2023-07-13T15:13:41;1.50;;;0.80;;
17614;SDS011;8926;49.720;6.576;2023-07-13T15:16:14;1.03;;;0.80;;
17614;SDS011;8926;49.720;6.576;2023-07-13T15:18:42;1.50;;;0.90;;
17614;SDS011;8926;49.720;6.576;2023-07-13T15:21:08;0.97;;;0.77;;
17614;SDS011;8926;49.720;6.576;2023-07-13T15:23:38;2.93;;;1.20;;
17614;SDS011;8926;49.720;6.576;2023-07-13T15:26:03;0.80;;;0.60;;
17614;SDS011;8926;49.720;6.576;2023-07-13T15:28:28;0.77;;;0.77;;
17614;SDS011;8926;49.720;6.576;2023-07-13T15:30:54;1.03;;;0.60;;
17614;SDS011;8926;49.720;6.576;2023-07-13T15:35:47;1.00;;;0.60;;
17614;SDS011;8926;49.720;6.576;2023-07-13T15:38:27;1.47;;;0.87;;
17614;SDS011;8926;49.720;6.576;2023-07-13T15:40:54;1.50;;;0.90;;
17614;SDS011;8926;49.720;6.576;2023-07-13T15:43:21;0.80;;;0.70;;
17614;SDS011;8926;49.720;6.576;2023-07-13T15:45:46;1.43;;;0.80;;
17614;SDS011;8926;49.720;6.576;2023-07-13T15:48:16;0.60;;;0.60;;
17614;SDS011;8926;49.720;6.576;2023-07-13T15:50:53;0.97;;;0.53;;
17614;SDS011;8926;49.720;6.576;2023-07-13T15:53:22;0.60;;;0.60;;